Time;durP1;ratioP1;P1;durP2;ratioP2;P2;SDS_P1;SDS_P2;PMS_P1;PMS_P2;Temp;Humidity;BMP_temperature;BMP_pressure;BME280_temperature;BME280_humidity;BME280_pressure;Samples;Min_cycle;Max_cycle;Signal;HPM_P1;HPM_P2
2022/06/04 00:00:20;;;;;;;2.97;1.48;;;14.80;99.90;;;;;;4984343;28;20134;-84
2022/06/04 00:02:47;;;;;;;2.83;1.27;;;14.80;99.90;;;;;;4981245;28;20285;-84
2022/06/04 00:05:15;;;;;;;2.33;1.13;;;14.80;99.90;;;;;;4982473;28;20482;-84
2022/06/04 00:07:42;;;;;;;3.10;1.30;;;14.80;99.90;;;;;;4964908;28;20314;-84
2022/06/04 00:15:46;;;;;;;2.03;1.02;;;14.70;99.90;;;;;;4964779;28;20077;-84
2022/06/04 00:18:14;;;;;;;1.75;0.88;;;14.70;99.90;;;;;;4965994;28;20353;-86
2022/06/04 00:20:41;;;;;;;1.70;1.25;;;14.70;99.90;;;;;;4968587;28;20085;-85
2022/06/04 00:23:08;;;;;;;1.33;0.90;;;14.70;99.90;;;;;;4967119;28;20537;-85
2022/06/04 00:25:35;;;;;;;1.85;1.20;;;14.70;99.90;;;;;;4966951;28;20310;-84
2022/06/04 00:28:04;;;;;;;1.92;1.25;;;14.70;99.90;;;;;;4981996;28;20104;-85
2022/06/04 00:30:31;;;;;;;4.18;1.50;;;14.70;99.90;;;;;;4967401;28;20129;-84
2022/06/04 00:32:58;;;;;;;3.03;1.63;;;14.70;99.90;;;;;;4983441;28;20157;-85
2022/06/04 00:35:25;;;;;;;2.58;1.40;;;14.70;99.90;;;;;;4979685;28;20133;-84
2022/06/04 00:37:52;;;;;;;2.30;1.10;;;14.70;99.90;;;;;;4982055;28;20050;-84
2022/06/04 00:40:57;;;;;;;3.20;1.30;;;14.60;99.90;;;;;;4966030;28;20173;-85
2022/06/04 00:43:24;;;;;;;2.05;1.35;;;14.70;99.90;;;;;;4938019;28;20136;-85
2022/06/04 00:46:08;;;;;;;3.10;1.45;;;14.60;99.90;;;;;;5000238;28;20050;-85
2022/06/04 00:48:35;;;;;;;2.88;1.40;;;14.60;99.90;;;;;;4999967;28;20450;-82
2022/06/04 00:51:03;;;;;;;1.83;1.10;;;14.60;99.90;;;;;;4951427;28;20145;-86
2022/06/04 00:53:30;;;;;;;2.08;0.90;;;14.60;99.90;;;;;;4985398;28;20041;-86
2022/06/04 00:56:27;;;;;;;3.28;0.93;;;14.60;99.90;;;;;;4984491;28;20053;-86
2022/06/04 00:59:18;;;;;;;3.13;0.93;;;14.60;99.90;;;;;;4981724;28;20388;-84
2022/06/04 01:01:57;;;;;;;2.63;1.05;;;14.50;99.90;;;;;;4990681;28;20160;-84
2022/06/04 01:04:49;;;;;;;1.27;0.90;;;14.50;99.90;;;;;;4969120;28;20050;-83
2022/06/04 01:07:36;;;;;;;1.67;0.90;;;14.50;99.90;;;;;;4987106;28;20102;-83
2022/06/04 01:10:23;;;;;;;1.42;0.75;;;14.40;99.90;;;;;;4987321;28;20545;-81
2022/06/04 01:12:50;;;;;;;3.45;1.27;;;14.40;99.90;;;;;;4989991;28;20137;-82
2022/06/04 01:15:24;;;;;;;2.25;1.02;;;14.40;99.90;;;;;;5005863;28;20148;-82
2022/06/04 01:17:59;;;;;;;2.60;1.00;;;14.30;99.90;;;;;;4988034;28;20152;-82
2022/06/04 01:20:36;;;;;;;2.28;1.10;;;14.30;99.90;;;;;;5005663;28;20046;-82
2022/06/04 01:23:20;;;;;;;2.50;1.20;;;14.20;99.90;;;;;;4987212;28;20093;-81
2022/06/04 01:26:22;;;;;;;2.08;0.90;;;14.20;99.90;;;;;;4987779;28;20136;-80
2022/06/04 01:28:52;;;;;;;3.75;1.30;;;14.20;99.90;;;;;;4970226;28;20065;-80
2022/06/04 01:31:25;;;;;;;3.22;1.20;;;14.20;99.90;;;;;;4971283;28;20074;-81
2022/06/04 01:33:53;;;;;;;;;;;14.20;99.90;;;;;;4990159;28;20061;-81
2022/06/04 01:36:26;;;;;;;2.55;1.08;;;14.20;99.90;;;;;;4989093;28;20416;-80
2022/06/04 01:39:08;;;;;;;2.28;1.50;;;14.10;99.90;;;;;;4973595;28;20129;-81
2022/06/04 01:41:42;;;;;;;1.98;1.00;;;14.10;99.90;;;;;;4981286;28;20125;-81
2022/06/04 01:44:40;;;;;;;2.75;1.25;;;14.10;99.90;;;;;;4970089;28;20130;-80
2022/06/04 01:47:06;;;;;;;1.55;0.80;;;14.10;99.90;;;;;;4945414;28;20050;-82
2022/06/04 01:49:40;;;;;;;1.25;0.60;;;14.10;99.90;;;;;;4954313;28;20050;-79
2022/06/04 01:52:15;;;;;;;2.33;1.27;;;14.10;99.90;;;;;;4970544;28;20138;-80
2022/06/04 01:54:49;;;;;;;2.92;1.13;;;14.00;99.90;;;;;;4937778;28;20058;-81
2022/06/04 01:57:21;;;;;;;1.77;1.10;;;14.00;99.90;;;;;;4953591;28;20133;-81
2022/06/04 01:59:53;;;;;;;2.50;0.95;;;14.00;99.90;;;;;;4986897;28;20082;-81
2022/06/04 02:02:41;;;;;;;2.17;0.80;;;14.00;99.90;;;;;;4953212;28;20061;-81
2022/06/04 02:05:09;;;;;;;1.90;0.80;;;14.00;99.90;;;;;;4944680;28;20624;-81
2022/06/04 02:07:38;;;;;;;1.35;1.00;;;14.00;99.90;;;;;;4971606;28;20703;-81
2022/06/04 02:10:07;;;;;;;1.83;0.93;;;14.00;99.90;;;;;;4964740;28;20157;-81
2022/06/04 02:12:34;;;;;;;1.20;0.82;;;14.00;99.90;;;;;;4991515;28;20722;-81
2022/06/04 02:15:07;;;;;;;1.35;0.90;;;14.00;99.90;;;;;;4992238;28;20490;-82
2022/06/04 02:17:34;;;;;;;4.07;1.13;;;13.90;99.90;;;;;;4976514;28;20049;-82
2022/06/04 02:20:00;;;;;;;2.45;1.10;;;13.90;99.90;;;;;;4990828;28;20236;-82
2022/06/04 02:22:27;;;;;;;2.90;1.35;;;13.90;99.90;;;;;;5007904;28;20049;-82
2022/06/04 02:24:54;;;;;;;1.80;1.05;;;13.90;99.90;;;;;;4980776;28;20054;-81
2022/06/04 02:27:21;;;;;;;2.55;0.90;;;13.90;99.90;;;;;;4955868;28;20134;-82
2022/06/04 02:29:47;;;;;;;2.97;1.10;;;13.80;99.90;;;;;;4972240;28;20100;-82
2022/06/04 02:32:17;;;;;;;2.83;1.02;;;13.90;99.90;;;;;;4956309;28;20096;-83
2022/06/04 02:35:39;;;;;;;2.10;1.02;;;13.90;99.90;;;;;;4972514;28;20129;-82
2022/06/04 02:38:41;;;;;;;1.30;0.93;;;13.90;99.90;;;;;;4931912;29;20459;-82
2022/06/04 02:41:32;;;;;;;2.03;0.85;;;13.90;99.90;;;;;;5008347;28;20492;-80
2022/06/04 02:44:12;;;;;;;2.92;0.90;;;13.90;99.90;;;;;;4984023;28;20136;-81
2022/06/04 02:47:18;;;;;;;3.70;1.38;;;13.80;99.90;;;;;;4991697;28;20054;-82
2022/06/04 02:49:55;;;;;;;3.55;0.90;;;13.80;99.90;;;;;;4975510;28;20062;-80
2022/06/04 02:52:21;;;;;;;2.30;1.10;;;13.80;99.90;;;;;;4975604;28;20081;-81
2022/06/04 02:55:16;;;;;;;3.22;1.30;;;13.70;99.90;;;;;;4990929;28;20812;-81
2022/06/04 02:57:46;;;;;;;2.00;1.00;;;13.70;99.90;;;;;;4990613;28;20088;-81
2022/06/04 03:00:14;;;;;;;1.83;1.08;;;13.70;99.90;;;;;;4991266;28;20394;-81
2022/06/04 03:02:40;;;;;;;2.72;1.25;;;13.70;99.90;;;;;;4971689;28;20486;-82
2022/06/04 03:05:10;;;;;;;2.25;1.20;;;13.70;99.90;;;;;;4972252;28;20058;-82
2022/06/04 03:07:39;;;;;;;3.17;1.40;;;13.70;99.90;;;;;;4971638;28;20474;-82
2022/06/04 03:10:09;;;;;;;1.77;1.20;;;13.70;99.90;;;;;;4955909;28;20153;-83
2022/06/04 03:12:36;;;;;;;3.05;1.48;;;13.60;99.90;;;;;;4980159;28;20092;-82
2022/06/04 03:15:03;;;;;;;2.55;1.20;;;13.70;99.90;;;;;;4971576;28;20104;-82
2022/06/04 03:17:30;;;;;;;2.45;1.23;;;13.70;99.90;;;;;;4971254;28;20084;-82
2022/06/04 03:19:57;;;;;;;2.45;0.90;;;13.70;99.90;;;;;;4955772;28;20086;-82
2022/06/04 03:22:24;;;;;;;3.80;1.33;;;13.70;99.90;;;;;;4955496;28;20058;-83
2022/06/04 03:24:51;;;;;;;2.72;1.20;;;13.70;99.90;;;;;;4955763;28;20157;-81
2022/06/04 03:27:18;;;;;;;1.30;0.98;;;13.70;99.90;;;;;;4967664;28;20586;-82
2022/06/04 03:29:46;;;;;;;1.45;0.95;;;13.70;99.90;;;;;;4971420;28;20473;-82
2022/06/04 03:32:12;;;;;;;2.88;1.13;;;13.70;99.90;;;;;;4955353;28;20051;-82
2022/06/04 03:34:39;;;;;;;1.30;1.02;;;13.70;99.90;;;;;;4971381;28;20590;-81
2022/06/04 03:37:06;;;;;;;2.10;1.30;;;13.70;99.90;;;;;;4973710;28;20053;-82
2022/06/04 03:39:33;;;;;;;3.08;1.63;;;13.70;99.90;;;;;;4986048;28;20136;-81
2022/06/04 03:42:01;;;;;;;1.95;1.17;;;13.60;99.90;;;;;;4974070;28;20133;-81
2022/06/04 03:44:28;;;;;;;2.78;1.55;;;13.60;99.90;;;;;;4974770;28;20124;-82
2022/06/04 03:46:55;;;;;;;3.38;1.70;;;13.60;99.90;;;;;;4974181;28;20053;-82
2022/06/04 03:49:22;;;;;;;2.25;1.20;;;13.60;99.90;;;;;;4975028;28;20089;-82
2022/06/04 03:51:49;;;;;;;3.53;1.40;;;13.70;99.90;;;;;;4985634;28;20052;-82
2022/06/04 03:54:15;;;;;;;2.05;1.30;;;13.60;99.90;;;;;;5008460;28;20117;-82
2022/06/04 03:56:42;;;;;;;2.72;1.48;;;13.60;99.90;;;;;;4989751;28;20129;-82
2022/06/04 03:59:09;;;;;;;2.65;1.27;;;13.60;99.90;;;;;;4974575;28;20136;-82
2022/06/04 04:01:36;;;;;;;3.75;1.83;;;13.70;99.90;;;;;;4974328;28;20046;-82
2022/06/04 04:04:02;;;;;;;4.13;1.65;;;13.70;99.90;;;;;;4977495;28;20148;-82
2022/06/04 04:06:31;;;;;;;3.05;1.45;;;13.70;99.90;;;;;;4990678;28;20053;-82
2022/06/04 04:08:58;;;;;;;2.15;1.10;;;13.70;99.90;;;;;;4990965;28;20084;-83
2022/06/04 04:11:26;;;;;;;3.60;1.70;;;13.70;99.90;;;;;;4989822;28;20696;-82
2022/06/04 04:13:53;;;;;;;1.75;1.10;;;13.80;99.90;;;;;;4974535;28;20125;-82
2022/06/04 04:16:21;;;;;;;2.58;1.30;;;13.80;99.90;;;;;;4970403;28;20401;-81
2022/06/04 04:18:47;;;;;;;2.10;1.48;;;13.80;99.90;;;;;;4959029;28;20097;-82
2022/06/04 04:21:16;;;;;;;3.17;1.50;;;13.80;99.90;;;;;;4951488;28;20062;-82
2022/06/04 04:23:43;;;;;;;3.72;1.73;;;13.80;99.90;;;;;;4967737;28;20149;-81
2022/06/04 04:26:11;;;;;;;2.17;1.30;;;13.80;99.90;;;;;;4950934;28;20137;-82
2022/06/04 04:28:38;;;;;;;3.28;1.27;;;13.80;99.90;;;;;;4951682;28;20079;-83
2022/06/04 04:31:12;;;;;;;2.72;1.40;;;13.80;99.90;;;;;;4966758;28;20113;-80
2022/06/04 04:33:39;;;;;;;2.92;1.30;;;13.80;99.90;;;;;;4936080;28;20131;-82
2022/06/04 04:36:07;;;;;;;2.45;1.33;;;13.80;99.90;;;;;;4936049;28;20138;-82
2022/06/04 04:38:33;;;;;;;3.88;1.40;;;13.90;99.90;;;;;;4967844;28;20474;-81
2022/06/04 04:41:00;;;;;;;2.75;1.67;;;13.80;99.90;;;;;;4957520;28;20070;-82
2022/06/04 04:43:27;;;;;;;2.60;1.70;;;13.90;99.90;;;;;;4985297;28;20133;-81
2022/06/04 04:46:04;;;;;;;1.90;1.23;;;13.80;99.90;;;;;;4974274;28;20054;-81
2022/06/04 04:48:30;;;;;;;3.78;1.70;;;13.80;99.90;;;;;;4986164;28;20128;-82
2022/06/04 04:50:57;;;;;;;3.45;1.50;;;13.80;99.90;;;;;;4986769;28;20077;-81
2022/06/04 04:53:24;;;;;;;3.45;1.73;;;13.70;99.90;;;;;;4986960;28;20129;-81
2022/06/04 04:55:51;;;;;;;2.17;1.38;;;13.70;99.90;;;;;;4990266;28;20427;-89
2022/06/04 04:58:17;;;;;;;3.65;1.98;;;13.70;99.90;;;;;;4990341;28;20221;-88
2022/06/04 05:00:44;;;;;;;2.47;1.30;;;13.70;99.90;;;;;;4967241;28;20141;-81
2022/06/04 05:03:11;;;;;;;3.40;1.73;;;13.70;99.90;;;;;;4943864;28;20359;-81
2022/06/04 05:05:38;;;;;;;3.83;1.50;;;13.70;99.90;;;;;;4973838;28;20116;-81
2022/06/04 05:08:05;;;;;;;2.20;1.25;;;13.70;99.90;;;;;;4974882;28;20125;-82
2022/06/04 05:10:32;;;;;;;2.47;1.48;;;13.70;99.90;;;;;;4985818;28;20150;-83
2022/06/04 05:12:59;;;;;;;3.47;1.58;;;13.70;99.90;;;;;;4979626;28;20525;-82
2022/06/04 05:15:26;;;;;;;1.73;1.30;;;13.70;99.90;;;;;;4985911;28;20152;-82
2022/06/04 05:17:53;;;;;;;1.95;1.40;;;13.70;99.90;;;;;;4987799;28;20086;-82
2022/06/04 05:20:19;;;;;;;4.90;1.40;;;13.70;99.90;;;;;;4970320;28;20055;-82
2022/06/04 05:22:46;;;;;;;6.07;1.20;;;13.70;99.90;;;;;;4968402;28;20067;-82
2022/06/04 05:25:13;;;;;;;2.38;1.40;;;13.70;99.90;;;;;;4966634;28;20569;-81
2022/06/04 05:27:40;;;;;;;3.15;1.50;;;13.80;99.90;;;;;;4932693;29;20087;-81
2022/06/04 05:30:07;;;;;;;3.42;1.33;;;13.70;99.90;;;;;;4966977;28;20105;-80
2022/06/04 05:32:34;;;;;;;2.53;1.23;;;13.70;99.90;;;;;;4965017;28;20085;-81
2022/06/04 05:35:00;;;;;;;2.78;1.58;;;13.70;99.90;;;;;;4965549;28;20138;-82
2022/06/04 05:37:27;;;;;;;2.83;1.40;;;13.70;99.90;;;;;;4949469;28;20049;-81
2022/06/04 05:40:01;;;;;;;2.30;1.40;;;13.70;99.90;;;;;;4968975;28;20053;-80
2022/06/04 05:42:28;;;;;;;1.70;0.95;;;13.80;99.90;;;;;;4969124;28;20149;-82
2022/06/04 05:44:54;;;;;;;1.83;1.05;;;13.80;99.90;;;;;;4967931;28;20066;-81
2022/06/04 05:47:21;;;;;;;2.55;1.20;;;13.90;99.90;;;;;;4964980;28;20053;-81
2022/06/04 05:49:48;;;;;;;3.38;1.60;;;13.90;99.90;;;;;;4949137;28;20082;-81
2022/06/04 05:52:15;;;;;;;2.47;1.30;;;13.90;99.90;;;;;;4965939;28;20110;-81
2022/06/04 05:54:41;;;;;;;3.13;1.48;;;13.90;99.90;;;;;;4966362;28;20064;-81
2022/06/04 05:57:08;;;;;;;2.13;1.30;;;13.90;99.90;;;;;;4961053;28;20158;-81
2022/06/04 05:59:35;;;;;;;4.32;1.70;;;13.90;99.90;;;;;;4964157;28;20068;-81
2022/06/04 06:02:02;;;;;;;2.38;1.40;;;13.90;99.90;;;;;;4963617;28;20514;-81
2022/06/04 06:04:29;;;;;;;3.05;1.52;;;13.90;99.90;;;;;;4957519;28;20040;-82
2022/06/04 06:06:58;;;;;;;2.75;1.40;;;14.00;99.90;;;;;;4948927;28;20392;-81
2022/06/04 06:09:25;;;;;;;2.53;1.30;;;14.00;99.90;;;;;;4964941;28;20138;-80
2022/06/04 06:11:52;;;;;;;3.42;1.50;;;14.10;99.90;;;;;;4945804;28;20057;-81
2022/06/04 06:14:19;;;;;;;3.33;1.65;;;14.10;99.90;;;;;;4944432;28;20085;-81
2022/06/04 06:16:47;;;;;;;2.90;1.40;;;14.00;99.90;;;;;;4961440;28;20058;-81
2022/06/04 06:19:15;;;;;;;2.80;1.92;;;14.10;99.90;;;;;;4953761;28;20175;-81
2022/06/04 06:21:42;;;;;;;2.28;1.50;;;14.10;99.90;;;;;;4963736;28;20154;-81
2022/06/04 06:24:09;;;;;;;3.13;1.20;;;14.10;99.90;;;;;;4949100;28;20130;-80
2022/06/04 06:26:44;;;;;;;4.03;1.95;;;14.10;99.90;;;;;;4945471;28;20599;-82
2022/06/04 06:29:11;;;;;;;1.70;1.17;;;14.10;99.90;;;;;;4930877;28;20086;-81
2022/06/04 06:31:38;;;;;;;3.10;1.58;;;14.10;99.90;;;;;;4962250;28;20153;-80
2022/06/04 06:34:05;;;;;;;4.90;1.70;;;14.20;99.90;;;;;;4958638;28;20044;-81
2022/06/04 06:36:31;;;;;;;2.53;1.50;;;14.10;99.90;;;;;;4917256;29;20098;-82
2022/06/04 06:38:58;;;;;;;1.88;1.25;;;14.10;99.90;;;;;;4954361;28;20078;-82
2022/06/04 06:41:25;;;;;;;2.30;1.20;;;14.10;99.90;;;;;;4966132;28;20131;-81
2022/06/04 06:43:52;;;;;;;2.47;1.20;;;14.20;99.90;;;;;;4963596;28;20106;-81
2022/06/04 06:46:31;;;;;;;2.53;1.60;;;14.20;99.90;;;;;;4932907;28;20055;-81
2022/06/04 06:49:19;;;;;;;4.03;2.13;;;14.20;99.90;;;;;;4942531;28;20055;-80
2022/06/04 06:51:57;;;;;;;3.67;1.80;;;14.10;99.90;;;;;;4936889;29;20118;-83
2022/06/04 06:54:26;;;;;;;2.67;1.50;;;14.10;99.90;;;;;;4934978;28;20046;-81
2022/06/04 06:56:53;;;;;;;5.15;1.55;;;14.10;99.90;;;;;;4960116;28;20050;-82
2022/06/04 06:59:20;;;;;;;2.58;1.50;;;14.10;99.90;;;;;;4960157;28;20590;-81
2022/06/04 07:01:48;;;;;;;1.98;1.30;;;14.10;99.90;;;;;;4965848;28;20062;-81
2022/06/04 07:04:16;;;;;;;2.30;1.42;;;14.10;99.90;;;;;;4942639;28;20522;-81
2022/06/04 07:06:46;;;;;;;2.25;1.13;;;14.10;99.90;;;;;;4926606;28;20078;-81
2022/06/04 07:09:13;;;;;;;2.08;0.90;;;14.20;99.90;;;;;;4923205;28;20078;-81
2022/06/04 07:11:39;;;;;;;2.40;1.30;;;14.20;99.90;;;;;;4951494;28;20097;-81
2022/06/04 07:14:06;;;;;;;2.55;1.40;;;14.10;99.90;;;;;;4948360;28;20043;-81
2022/06/04 07:16:33;;;;;;;3.05;1.50;;;14.10;99.90;;;;;;4957459;28;20083;-81
2022/06/04 07:19:02;;;;;;;2.78;1.45;;;14.10;99.90;;;;;;4946695;28;20113;-81
2022/06/04 07:21:29;;;;;;;2.38;1.38;;;14.10;99.90;;;;;;4958389;28;20214;-81
2022/06/04 07:23:57;;;;;;;2.22;1.25;;;14.10;99.90;;;;;;4919521;28;20144;-82
2022/06/04 07:26:24;;;;;;;3.30;1.48;;;14.20;99.90;;;;;;4936210;28;20153;-81
2022/06/04 07:28:51;;;;;;;3.00;1.83;;;14.20;99.90;;;;;;4935524;28;20087;-81
2022/06/04 07:31:18;;;;;;;2.25;1.50;;;14.30;99.90;;;;;;4949689;28;20423;-82
2022/06/04 07:33:45;;;;;;;2.45;1.38;;;14.30;99.90;;;;;;4931816;28;20058;-81
2022/06/04 07:36:15;;;;;;;2.35;1.20;;;14.30;99.90;;;;;;4931708;28;20109;-81
2022/06/04 07:38:43;;;;;;;3.42;1.65;;;14.30;99.90;;;;;;4949935;28;20482;-81
2022/06/04 07:41:19;;;;;;;2.90;1.75;;;14.40;99.90;;;;;;4946523;28;20137;-80
2022/06/04 07:43:47;;;;;;;2.47;1.40;;;14.40;99.90;;;;;;4949197;28;20137;-81
2022/06/04 07:46:14;;;;;;;3.67;1.95;;;14.50;99.90;;;;;;4933850;28;20567;-79
2022/06/04 07:48:41;;;;;;;3.03;1.67;;;14.70;99.90;;;;;;4947604;28;20066;-80
2022/06/04 07:51:08;;;;;;;2.85;1.33;;;14.80;99.90;;;;;;4932846;28;20451;-80
2022/06/04 07:53:35;;;;;;;1.90;1.30;;;14.90;99.90;;;;;;4933840;28;20514;-81
2022/06/04 07:56:11;;;;;;;4.85;1.50;;;15.10;99.90;;;;;;4930965;28;20051;-80
2022/06/04 07:58:37;;;;;;;4.72;2.10;;;15.00;99.90;;;;;;4931410;28;20051;-81
2022/06/04 08:01:04;;;;;;;3.70;1.70;;;15.00;99.90;;;;;;4946964;28;20560;-80
2022/06/04 08:03:33;;;;;;;3.72;1.70;;;15.00;99.90;;;;;;4934451;28;20130;-82
2022/06/04 08:06:01;;;;;;;3.33;2.10;;;14.90;99.90;;;;;;4933658;28;20146;-81
2022/06/04 08:08:28;;;;;;;3.40;1.70;;;14.80;99.90;;;;;;4934303;28;20082;-80
2022/06/04 08:10:55;;;;;;;3.72;2.00;;;14.80;99.90;;;;;;4918199;29;20055;-80
2022/06/04 08:13:30;;;;;;;3.40;1.80;;;14.90;99.90;;;;;;4932644;28;20050;-80
2022/06/04 08:16:00;;;;;;;4.50;2.50;;;14.90;99.90;;;;;;4959029;28;20567;-79
2022/06/04 08:18:27;;;;;;;4.32;2.50;;;14.90;99.90;;;;;;4957985;28;20992;-80
2022/06/04 08:20:54;;;;;;;3.67;2.00;;;15.10;99.90;;;;;;4943695;28;20121;-80
2022/06/04 08:23:21;;;;;;;3.78;2.22;;;15.20;99.90;;;;;;4949456;28;20097;-80
2022/06/04 08:25:50;;;;;;;2.13;1.52;;;15.30;99.90;;;;;;4980245;28;20089;-79
2022/06/04 08:28:17;;;;;;;2.65;1.42;;;15.50;99.90;;;;;;4948920;28;20065;-80
2022/06/04 08:30:44;;;;;;;3.15;1.83;;;15.50;99.90;;;;;;4980920;28;20542;-73
2022/06/04 08:33:11;;;;;;;4.47;2.60;;;15.50;99.90;;;;;;4946108;28;20085;-76
2022/06/04 08:35:38;;;;;;;4.07;2.60;;;15.40;99.90;;;;;;4953098;28;20047;-73
2022/06/04 08:38:05;;;;;;;3.72;2.40;;;15.30;99.90;;;;;;4946636;28;20058;-74
2022/06/04 08:40:38;;;;;;;3.47;2.15;;;15.40;99.90;;;;;;4956941;28;20046;-73
2022/06/04 08:43:04;;;;;;;3.10;2.00;;;15.50;99.90;;;;;;4941458;28;20380;-74
2022/06/04 08:45:31;;;;;;;3.40;2.20;;;15.50;99.90;;;;;;4997617;28;20134;-73
2022/06/04 08:47:58;;;;;;;4.25;2.10;;;15.50;99.90;;;;;;4980661;28;20111;-74
2022/06/04 08:50:25;;;;;;;3.85;2.30;;;15.50;99.90;;;;;;4977196;28;20082;-74
2022/06/04 08:52:55;;;;;;;3.13;1.95;;;15.60;99.90;;;;;;4960894;28;20180;-74
2022/06/04 08:59:16;;;;;;;2.85;1.90;;;15.60;99.90;;;;;;4975851;28;20499;-74
2022/06/04 09:01:55;;;;;;;2.65;1.73;;;15.50;99.90;;;;;;4996423;28;20056;-74
2022/06/04 09:04:35;;;;;;;3.33;1.92;;;15.40;99.90;;;;;;4963597;28;20556;-73
2022/06/04 09:07:09;;;;;;;3.72;2.35;;;15.40;99.90;;;;;;4979951;28;20137;-74
2022/06/04 09:09:57;;;;;;;3.05;1.83;;;15.30;99.90;;;;;;4968213;28;20135;-74
2022/06/04 09:12:36;;;;;;;3.22;1.88;;;15.30;99.90;;;;;;4977017;28;20389;-74
2022/06/04 09:15:16;;;;;;;4.40;2.20;;;15.30;99.90;;;;;;4975015;28;20569;-74
2022/06/04 09:17:50;;;;;;;3.65;1.90;;;15.50;99.90;;;;;;4981070;28;20089;-74
2022/06/04 09:20:19;;;;;;;5.15;2.13;;;15.60;99.90;;;;;;4975771;28;20085;-74
2022/06/04 09:22:47;;;;;;;4.35;2.35;;;15.50;99.90;;;;;;4967198;28;20836;-74
2022/06/04 09:25:19;;;;;;;3.58;2.25;;;15.70;99.90;;;;;;4973787;28;20043;-74
2022/06/04 09:28:03;;;;;;;3.65;2.05;;;15.90;99.90;;;;;;4981014;28;20429;-73
2022/06/04 09:30:44;;;;;;;2.55;1.67;;;16.20;99.90;;;;;;4942485;28;20046;-73
2022/06/04 09:33:38;;;;;;;3.50;1.90;;;16.50;99.90;;;;;;4965658;28;20086;-74
2022/06/04 09:36:05;;;;;;;3.33;1.92;;;16.60;99.90;;;;;;4993957;28;20053;-76
2022/06/04 09:38:33;;;;;;;2.90;1.65;;;16.70;99.90;;;;;;4964311;28;20140;-76
2022/06/04 09:41:18;;;;;;;2.67;1.67;;;16.90;99.90;;;;;;4998861;28;20085;-76
2022/06/04 09:43:45;;;;;;;3.28;1.67;;;17.10;99.90;;;;;;4982349;28;20056;-73
2022/06/04 09:46:13;;;;;;;2.45;1.70;;;17.30;99.90;;;;;;4974537;28;20113;-73
2022/06/04 09:48:49;;;;;;;2.22;1.50;;;17.40;99.90;;;;;;4963455;28;20042;-73
2022/06/04 09:51:21;;;;;;;2.83;1.70;;;17.60;99.90;;;;;;4973800;28;20361;-73
2022/06/04 09:53:50;;;;;;;2.33;1.60;;;17.90;99.90;;;;;;4961234;28;20054;-73
2022/06/04 09:56:27;;;;;;;3.33;2.00;;;18.00;99.90;;;;;;4962502;28;20056;-73
2022/06/04 09:58:55;;;;;;;3.42;2.28;;;18.00;99.90;;;;;;4964981;28;20131;-73
2022/06/04 10:01:23;;;;;;;3.28;2.38;;;18.10;99.90;;;;;;4963776;28;20589;-73
2022/06/04 10:04:12;;;;;;;2.75;2.03;;;18.20;99.90;;;;;;4980365;28;20572;-73
2022/06/04 10:06:39;;;;;;;4.35;2.15;;;18.40;99.90;;;;;;4981225;28;20089;-73
2022/06/04 10:12:03;;;;;;;5.15;2.17;;;18.40;99.90;;;;;;4965070;28;20541;-73
2022/06/04 10:14:34;;;;;;;3.53;2.08;;;18.50;99.90;;;;;;4961116;28;20147;-72
2022/06/04 10:17:01;;;;;;;3.10;1.55;;;18.60;99.90;;;;;;4963196;28;20486;-73
2022/06/04 10:19:30;;;;;;;3.45;2.00;;;18.80;99.90;;;;;;4960562;28;20054;-73
2022/06/04 10:22:12;;;;;;;3.38;1.77;;;18.90;99.90;;;;;;4967638;28;20153;-73
2022/06/04 10:24:57;;;;;;;3.00;1.60;;;19.10;99.90;;;;;;4960865;28;20153;-72
2022/06/04 10:27:37;;;;;;;4.93;1.70;;;19.30;99.90;;;;;;4963038;28;20221;-73
2022/06/04 10:30:22;;;;;;;4.68;2.00;;;19.40;99.90;;;;;;4978974;28;20221;-72
2022/06/04 10:33:14;;;;;;;4.10;1.45;;;19.30;99.90;;;;;;4977442;28;20134;-73
2022/06/04 10:35:44;;;;;;;4.72;2.00;;;19.10;99.90;;;;;;4960885;28;20124;-76
2022/06/04 10:38:23;;;;;;;3.25;1.90;;;19.10;99.90;;;;;;4985220;28;20406;-73
2022/06/04 10:40:58;;;;;;;3.50;1.80;;;19.20;99.90;;;;;;4973149;28;20158;-76
2022/06/04 10:44:16;;;;;;;3.00;1.70;;;18.90;99.90;;;;;;4966545;28;20081;-76
2022/06/04 10:46:58;;;;;;;3.00;1.85;;;19.00;99.90;;;;;;4972942;28;20391;-76
2022/06/04 10:49:38;;;;;;;2.95;1.67;;;19.10;99.90;;;;;;4995606;28;20050;-76
2022/06/04 10:52:11;;;;;;;3.15;1.70;;;19.20;99.90;;;;;;4981280;28;20064;-76
2022/06/04 10:54:39;;;;;;;3.55;1.73;;;19.10;99.90;;;;;;4979856;28;20136;-73
2022/06/04 10:57:25;;;;;;;2.58;1.38;;;19.40;99.90;;;;;;4973717;28;20149;-73
2022/06/04 11:00:18;;;;;;;2.83;1.70;;;19.60;99.90;;;;;;4991240;28;20273;-75
2022/06/04 11:02:53;;;;;;;5.93;2.47;;;19.70;99.90;;;;;;4952563;28;20081;-73
2022/06/04 11:05:26;;;;;;;3.10;1.83;;;19.50;99.90;;;;;;4974926;28;20070;-72
2022/06/04 11:08:11;;;;;;;3.20;1.90;;;19.20;99.90;;;;;;4956173;28;20136;-72
2022/06/04 11:10:40;;;;;;;3.55;2.15;;;19.20;99.90;;;;;;4971984;28;20057;-73
2022/06/04 11:13:17;;;;;;;3.20;1.80;;;19.10;99.90;;;;;;4958186;28;20484;-73
2022/06/04 11:16:05;;;;;;;2.58;1.77;;;19.10;99.90;;;;;;4973015;28;20141;-73
2022/06/04 11:18:43;;;;;;;4.47;2.13;;;19.20;99.90;;;;;;4978654;28;20085;-74
2022/06/04 11:21:30;;;;;;;5.00;2.35;;;19.20;99.90;;;;;;4976878;28;20053;-73
2022/06/04 11:24:04;;;;;;;4.07;2.30;;;19.30;99.90;;;;;;4969923;28;20085;-74
2022/06/04 11:26:57;;;;;;;3.75;1.70;;;19.40;99.90;;;;;;4986906;28;20469;-74
2022/06/04 11:29:24;;;;;;;4.95;2.30;;;19.50;99.90;;;;;;4971156;28;20141;-73
2022/06/04 11:31:54;;;;;;;3.00;1.92;;;19.50;99.90;;;;;;4965271;28;20050;-74
2022/06/04 11:34:50;;;;;;;3.83;2.38;;;19.60;99.90;;;;;;4997184;28;20092;-73
2022/06/04 11:38:01;;;;;;;2.50;1.83;;;19.70;99.90;;;;;;4946945;28;20065;-73
2022/06/04 11:40:34;;;;;;;4.00;1.80;;;20.00;99.90;;;;;;4980963;28;20069;-74
2022/06/04 11:43:14;;;;;;;3.47;1.58;;;20.30;99.90;;;;;;4975176;28;20518;-73
2022/06/04 11:46:20;;;;;;;2.22;1.40;;;20.50;99.90;;;;;;4960816;28;20190;-74
2022/06/04 11:48:50;;;;;;;2.65;1.60;;;20.80;99.90;;;;;;4978378;28;20061;-74
2022/06/04 11:51:37;;;;;;;1.67;1.15;;;21.10;99.90;;;;;;4971464;28;20236;-74
2022/06/04 11:54:13;;;;;;;2.30;1.20;;;21.60;99.90;;;;;;4975644;28;20054;-74
2022/06/04 11:56:46;;;;;;;1.20;0.88;;;21.70;99.90;;;;;;4995946;28;20348;-74
2022/06/04 11:59:47;;;;;;;4.53;1.60;;;21.60;99.90;;;;;;4977329;28;20053;-74
2022/06/04 12:02:27;;;;;;;2.75;1.50;;;21.10;99.90;;;;;;4982363;28;20307;-72
2022/06/04 12:05:16;;;;;;;2.42;1.30;;;20.80;99.90;;;;;;4971623;28;20106;-73
2022/06/04 12:07:44;;;;;;;3.45;1.70;;;21.00;99.90;;;;;;4962517;28;20168;-74
2022/06/04 12:10:38;;;;;;;2.70;1.58;;;21.20;99.90;;;;;;4959161;28;20054;-74
2022/06/04 12:13:11;;;;;;;3.03;1.67;;;21.40;99.90;;;;;;4968068;28;20398;-73
2022/06/04 12:15:47;;;;;;;3.60;2.03;;;21.60;99.90;;;;;;4955186;28;20107;-74
2022/06/04 12:18:27;;;;;;;2.55;1.50;;;21.90;99.90;;;;;;4991688;28;20493;-75
2022/06/04 12:26:41;;;;;;;4.00;2.45;;;23.20;99.90;;;;;;4966564;28;20233;-71
2022/06/04 12:29:31;;;;;;;2.90;1.63;;;23.20;99.90;;;;;;4955636;28;20873;-74
2022/06/04 12:31:59;;;;;;;2.75;1.40;;;23.60;99.90;;;;;;4982939;28;20181;-73
2022/06/04 12:34:37;;;;;;;1.73;1.00;;;23.70;99.90;;;;;;4960432;28;20470;-73
2022/06/04 12:37:05;;;;;;;1.73;1.40;;;24.20;99.90;;;;;;4973705;28;20102;-73
2022/06/04 12:39:39;;;;;;;2.75;1.60;;;24.10;99.90;;;;;;4960831;28;20058;-73
2022/06/04 12:42:23;;;;;;;2.53;1.55;;;23.80;99.90;;;;;;4965797;28;20081;-73
2022/06/04 12:45:00;;;;;;;2.85;1.60;;;23.50;99.90;;;;;;4954525;28;20054;-73
2022/06/04 12:47:32;;;;;;;3.40;1.70;;;23.40;99.90;;;;;;4980739;28;20077;-73
2022/06/04 12:50:18;;;;;;;3.55;1.67;;;23.60;99.90;;;;;;4961394;28;20165;-73
2022/06/04 12:52:51;;;;;;;2.53;1.55;;;23.80;99.90;;;;;;4974997;28;20139;-73
2022/06/04 12:55:25;;;;;;;;;;;24.00;99.90;;;;;;4976112;28;20046;-73
2022/06/04 12:58:24;;;;;;;2.08;1.42;;;24.10;99.90;;;;;;4975542;28;20020;-73
2022/06/04 13:01:18;;;;;;;3.33;1.80;;;24.00;99.70;;;;;;4956170;28;20070;-73
2022/06/04 13:03:47;;;;;;;3.35;1.85;;;24.00;99.70;;;;;;4944410;28;20057;-73
2022/06/04 13:06:46;;;;;;;3.65;1.85;;;24.00;99.90;;;;;;4978414;28;20564;-73
2022/06/04 13:09:24;;;;;;;2.97;1.50;;;24.40;99.90;;;;;;4951014;28;20288;-73
2022/06/04 13:12:00;;;;;;;1.55;1.23;;;24.20;98.60;;;;;;4982285;28;20496;-73
2022/06/04 13:14:44;;;;;;;3.50;1.45;;;24.30;98.50;;;;;;4999488;28;20136;-73
2022/06/04 13:17:15;;;;;;;3.88;1.98;;;24.20;98.80;;;;;;4982846;28;20132;-73
2022/06/04 13:19:46;;;;;;;3.38;2.00;;;24.10;98.70;;;;;;4992074;28;20145;-73
2022/06/04 13:22:49;;;;;;;4.22;2.10;;;24.10;98.50;;;;;;4990295;28;20481;-73
2022/06/04 13:25:18;;;;;;;3.60;2.15;;;24.20;98.30;;;;;;4985698;28;20308;-73
2022/06/04 13:27:51;;;;;;;2.42;1.60;;;24.40;98.20;;;;;;4963438;28;20397;-73
2022/06/04 13:30:26;;;;;;;3.20;1.60;;;24.60;98.00;;;;;;4991744;28;20125;-73
2022/06/04 13:32:58;;;;;;;2.72;1.45;;;24.70;97.60;;;;;;4988814;28;20047;-73
2022/06/04 13:35:31;;;;;;;3.13;1.75;;;24.80;97.50;;;;;;4963483;28;20053;-72